sensor_id;sensor_type;location;lat;lon;timestamp;temperature;humidity
53264;DHT22;39153;52.680;6.172;2022-07-29T00:02:12;16.60;99.90
53264;DHT22;39153;52.680;6.172;2022-07-29T00:04:38;16.60;99.90
53264;DHT22;39153;52.680;6.172;2022-07-29T00:07:04;16.60;99.90
53264;DHT22;39153;52.680;6.172;2022-07-29T00:09:31;16.70;99.90
53264;DHT22;39153;52.680;6.172;2022-07-29T00:11:59;16.60;99.90
53264;DHT22;39153;52.680;6.172;2022-07-29T00:14:25;16.50;99.90
53264;DHT22;39153;52.680;6.172;2022-07-29T00:16:50;16.50;99.90
53264;DHT22;39153;52.680;6.172;2022-07-29T00:19:16;16.50;99.90
53264;DHT22;39153;52.680;6.172;2022-07-29T00:21:42;16.50;99.90
53264;DHT22;39153;52.680;6.172;2022-07-29T00:24:07;16.40;99.90
53264;DHT22;39153;52.680;6.172;2022-07-29T00:26:33;16.50;99.90
53264;DHT22;39153;52.680;6.172;2022-07-29T00:29:03;16.40;99.90
53264;DHT22;39153;52.680;6.172;2022-07-29T00:31:29;16.40;99.90
53264;DHT22;39153;52.680;6.172;2022-07-29T00:33:55;16.50;99.90
53264;DHT22;39153;52.680;6.172;2022-07-29T00:36:21;16.50;99.90
53264;DHT22;39153;52.680;6.172;2022-07-29T00:38:49;16.50;99.90
53264;DHT22;39153;52.680;6.172;2022-07-29T00:41:15;16.40;99.90
53264;DHT22;39153;52.680;6.172;2022-07-29T00:43:41;16.50;99.90
53264;DHT22;39153;52.680;6.172;2022-07-29T00:46:07;16.50;99.90
53264;DHT22;39153;52.680;6.172;2022-07-29T00:48:35;16.30;99.90
53264;DHT22;39153;52.680;6.172;2022-07-29T00:51:03;16.40;99.90
53264;DHT22;39153;52.680;6.172;2022-07-29T00:53:30;16.30;99.90
53264;DHT22;39153;52.680;6.172;2022-07-29T00:55:56;16.30;99.90
53264;DHT22;39153;52.680;6.172;2022-07-29T00:58:23;16.30;99.90
53264;DHT22;39153;52.680;6.172;2022-07-29T01:00:49;16.30;99.90
53264;DHT22;39153;52.680;6.172;2022-07-29T01:03:14;16.20;99.90
53264;DHT22;39153;52.680;6.172;2022-07-29T01:05:43;16.30;99.90
53264;DHT22;39153;52.680;6.172;2022-07-29T01:08:11;16.20;99.90
53264;DHT22;39153;52.680;6.172;2022-07-29T01:10:39;16.20;99.90
53264;DHT22;39153;52.680;6.172;2022-07-29T01:13:05;16.20;99.90
53264;DHT22;39153;52.680;6.172;2022-07-29T01:15:33;16.20;99.90
53264;DHT22;39153;52.680;6.172;2022-07-29T01:26:42;16.10;99.90
53264;DHT22;39153;52.680;6.172;2022-07-29T01:29:44;16.10;99.90
53264;DHT22;39153;52.680;6.172;2022-07-29T01:32:14;16.00;99.90
53264;DHT22;39153;52.680;6.172;2022-07-29T01:34:58;16.00;99.90
53264;DHT22;39153;52.680;6.172;2022-07-29T01:37:55;16.10;99.90
53264;DHT22;39153;52.680;6.172;2022-07-29T01:40:27;16.00;99.90
53264;DHT22;39153;52.680;6.172;2022-07-29T01:42:57;16.10;99.90
53264;DHT22;39153;52.680;6.172;2022-07-29T01:45:43;16.00;99.90
53264;DHT22;39153;52.680;6.172;2022-07-29T01:48:17;16.00;99.90
53264;DHT22;39153;52.680;6.172;2022-07-29T01:50:52;16.00;99.90
53264;DHT22;39153;52.680;6.172;2022-07-29T01:53:26;16.00;99.90
53264;DHT22;39153;52.680;6.172;2022-07-29T01:55:56;15.90;99.90
53264;DHT22;39153;52.680;6.172;2022-07-29T01:58:24;15.90;99.90
53264;DHT22;39153;52.680;6.172;2022-07-29T02:00:51;15.90;99.90
53264;DHT22;39153;52.680;6.172;2022-07-29T02:03:18;15.90;99.90
53264;DHT22;39153;52.680;6.172;2022-07-29T02:05:46;15.80;99.90
53264;DHT22;39153;52.680;6.172;2022-07-29T02:08:14;15.80;99.90
53264;DHT22;39153;52.680;6.172;2022-07-29T02:10:42;15.80;99.90
53264;DHT22;39153;52.680;6.172;2022-07-29T02:13:11;15.80;99.90
53264;DHT22;39153;52.680;6.172;2022-07-29T02:15:38;15.70;99.90
53264;DHT22;39153;52.680;6.172;2022-07-29T02:18:09;15.70;99.90
53264;DHT22;39153;52.680;6.172;2022-07-29T02:20:36;15.80;99.90
53264;DHT22;39153;52.680;6.172;2022-07-29T02:23:03;15.70;99.90
53264;DHT22;39153;52.680;6.172;2022-07-29T02:25:29;15.80;99.90
53264;DHT22;39153;52.680;6.172;2022-07-29T02:27:57;15.70;99.90
53264;DHT22;39153;52.680;6.172;2022-07-29T02:30:25;15.70;99.90
53264;DHT22;39153;52.680;6.172;2022-07-29T02:32:53;15.70;99.90
53264;DHT22;39153;52.680;6.172;2022-07-29T02:35:21;15.60;99.90
53264;DHT22;39153;52.680;6.172;2022-07-29T02:37:47;15.70;99.90
53264;DHT22;39153;52.680;6.172;2022-07-29T02:40:38;15.70;99.90
53264;DHT22;39153;52.680;6.172;2022-07-29T02:43:06;15.60;99.90
53264;DHT22;39153;52.680;6.172;2022-07-29T02:45:33;15.60;99.90
53264;DHT22;39153;52.680;6.172;2022-07-29T02:48:06;15.60;99.90
53264;DHT22;39153;52.680;6.172;2022-07-29T02:50:44;15.60;99.90
53264;DHT22;39153;52.680;6.172;2022-07-29T02:56:34;15.60;99.90
53264;DHT22;39153;52.680;6.172;2022-07-29T02:58:59;15.60;99.90
53264;DHT22;39153;52.680;6.172;2022-07-29T03:01:31;15.70;99.90
53264;DHT22;39153;52.680;6.172;2022-07-29T03:04:01;15.60;99.90
53264;DHT22;39153;52.680;6.172;2022-07-29T03:06:29;15.60;99.90
53264;DHT22;39153;52.680;6.172;2022-07-29T03:08:56;15.60;99.90
53264;DHT22;39153;52.680;6.172;2022-07-29T03:11:23;15.50;99.90
53264;DHT22;39153;52.680;6.172;2022-07-29T03:13:50;15.40;99.90
53264;DHT22;39153;52.680;6.172;2022-07-29T03:16:16;15.40;99.90
53264;DHT22;39153;52.680;6.172;2022-07-29T03:18:43;15.50;99.90
53264;DHT22;39153;52.680;6.172;2022-07-29T03:21:09;15.40;99.90
53264;DHT22;39153;52.680;6.172;2022-07-29T03:23:35;15.40;99.90
53264;DHT22;39153;52.680;6.172;2022-07-29T03:26:00;15.40;99.90
53264;DHT22;39153;52.680;6.172;2022-07-29T03:28:26;15.50;99.90
53264;DHT22;39153;52.680;6.172;2022-07-29T03:30:53;15.40;99.90
53264;DHT22;39153;52.680;6.172;2022-07-29T03:33:18;15.30;99.90
53264;DHT22;39153;52.680;6.172;2022-07-29T03:35:44;15.40;99.90
53264;DHT22;39153;52.680;6.172;2022-07-29T03:38:10;15.40;99.90
53264;DHT22;39153;52.680;6.172;2022-07-29T03:41:00;15.40;99.90
53264;DHT22;39153;52.680;6.172;2022-07-29T03:43:30;15.30;99.90
53264;DHT22;39153;52.680;6.172;2022-07-29T03:45:57;15.30;99.90
53264;DHT22;39153;52.680;6.172;2022-07-29T03:48:26;15.30;99.90
53264;DHT22;39153;52.680;6.172;2022-07-29T03:50:55;15.20;99.90
53264;DHT22;39153;52.680;6.172;2022-07-29T03:53:21;15.10;99.90
53264;DHT22;39153;52.680;6.172;2022-07-29T03:55:50;15.10;99.90
53264;DHT22;39153;52.680;6.172;2022-07-29T03:58:17;15.20;99.90
53264;DHT22;39153;52.680;6.172;2022-07-29T04:00:45;15.10;99.90
53264;DHT22;39153;52.680;6.172;2022-07-29T04:03:12;15.20;99.90
53264;DHT22;39153;52.680;6.172;2022-07-29T04:05:38;15.10;99.90
53264;DHT22;39153;52.680;6.172;2022-07-29T04:08:05;15.10;99.90
53264;DHT22;39153;52.680;6.172;2022-07-29T04:10:30;15.00;99.90
53264;DHT22;39153;52.680;6.172;2022-07-29T04:12:56;15.00;99.90
53264;DHT22;39153;52.680;6.172;2022-07-29T04:15:22;15.10;99.90
53264;DHT22;39153;52.680;6.172;2022-07-29T04:17:47;15.10;99.90
53264;DHT22;39153;52.680;6.172;2022-07-29T04:20:13;14.90;99.90
53264;DHT22;39153;52.680;6.172;2022-07-29T04:22:40;15.00;99.90
53264;DHT22;39153;52.680;6.172;2022-07-29T04:25:06;14.90;99.90
53264;DHT22;39153;52.680;6.172;2022-07-29T04:27:32;15.00;99.90
53264;DHT22;39153;52.680;6.172;2022-07-29T04:29:57;14.90;99.90
53264;DHT22;39153;52.680;6.172;2022-07-29T04:32:24;14.90;99.90
53264;DHT22;39153;52.680;6.172;2022-07-29T04:34:50;14.90;99.90
53264;DHT22;39153;52.680;6.172;2022-07-29T04:37:16;14.90;99.90
53264;DHT22;39153;52.680;6.172;2022-07-29T04:39:42;14.90;99.90
53264;DHT22;39153;52.680;6.172;2022-07-29T04:42:07;14.80;99.90
53264;DHT22;39153;52.680;6.172;2022-07-29T04:44:33;14.90;99.90
53264;DHT22;39153;52.680;6.172;2022-07-29T04:46:59;14.80;99.90
53264;DHT22;39153;52.680;6.172;2022-07-29T04:49:24;14.80;99.90
53264;DHT22;39153;52.680;6.172;2022-07-29T04:51:50;14.90;99.90
53264;DHT22;39153;52.680;6.172;2022-07-29T04:54:16;14.90;99.90
53264;DHT22;39153;52.680;6.172;2022-07-29T04:56:41;14.80;99.90
53264;DHT22;39153;52.680;6.172;2022-07-29T04:59:07;14.90;99.90
53264;DHT22;39153;52.680;6.172;2022-07-29T05:01:33;14.90;99.90
53264;DHT22;39153;52.680;6.172;2022-07-29T05:03:58;15.00;99.90
53264;DHT22;39153;52.680;6.172;2022-07-29T05:06:24;15.00;99.90
53264;DHT22;39153;52.680;6.172;2022-07-29T05:08:50;15.00;99.90
53264;DHT22;39153;52.680;6.172;2022-07-29T05:11:15;14.90;99.90
53264;DHT22;39153;52.680;6.172;2022-07-29T05:13:41;15.00;99.90
53264;DHT22;39153;52.680;6.172;2022-07-29T05:16:08;15.00;99.90
53264;DHT22;39153;52.680;6.172;2022-07-29T05:18:33;15.00;99.90
53264;DHT22;39153;52.680;6.172;2022-07-29T05:20:59;15.10;99.90
53264;DHT22;39153;52.680;6.172;2022-07-29T05:23:24;15.20;99.90
53264;DHT22;39153;52.680;6.172;2022-07-29T05:25:50;15.10;99.90
53264;DHT22;39153;52.680;6.172;2022-07-29T05:28:16;15.20;99.90
53264;DHT22;39153;52.680;6.172;2022-07-29T05:30:41;15.20;99.90
53264;DHT22;39153;52.680;6.172;2022-07-29T05:33:07;15.20;99.90
53264;DHT22;39153;52.680;6.172;2022-07-29T05:35:33;15.30;99.90
53264;DHT22;39153;52.680;6.172;2022-07-29T05:38:00;15.40;99.90
53264;DHT22;39153;52.680;6.172;2022-07-29T05:40:26;15.50;99.90
53264;DHT22;39153;52.680;6.172;2022-07-29T05:42:51;15.40;99.90
53264;DHT22;39153;52.680;6.172;2022-07-29T05:45:17;15.50;99.90
53264;DHT22;39153;52.680;6.172;2022-07-29T05:47:43;15.50;99.90
53264;DHT22;39153;52.680;6.172;2022-07-29T05:50:09;15.60;99.90
53264;DHT22;39153;52.680;6.172;2022-07-29T05:52:34;15.70;99.90
53264;DHT22;39153;52.680;6.172;2022-07-29T05:55:00;15.70;99.90
53264;DHT22;39153;52.680;6.172;2022-07-29T05:57:29;15.80;99.90
53264;DHT22;39153;52.680;6.172;2022-07-29T05:59:55;15.80;99.90
53264;DHT22;39153;52.680;6.172;2022-07-29T06:02:20;15.80;99.90
53264;DHT22;39153;52.680;6.172;2022-07-29T06:04:46;15.80;99.90
53264;DHT22;39153;52.680;6.172;2022-07-29T06:07:12;15.90;99.90
53264;DHT22;39153;52.680;6.172;2022-07-29T06:09:37;15.80;99.90
53264;DHT22;39153;52.680;6.172;2022-07-29T06:12:03;15.80;99.90
53264;DHT22;39153;52.680;6.172;2022-07-29T06:14:29;15.80;99.90
53264;DHT22;39153;52.680;6.172;2022-07-29T06:16:55;15.80;99.90
53264;DHT22;39153;52.680;6.172;2022-07-29T06:19:21;15.90;99.90
53264;DHT22;39153;52.680;6.172;2022-07-29T06:21:47;15.80;99.90
53264;DHT22;39153;52.680;6.172;2022-07-29T06:24:14;15.80;99.90
53264;DHT22;39153;52.680;6.172;2022-07-29T06:26:40;15.70;99.90
53264;DHT22;39153;52.680;6.172;2022-07-29T06:29:07;15.80;99.90
53264;DHT22;39153;52.680;6.172;2022-07-29T06:31:33;15.70;99.90
53264;DHT22;39153;52.680;6.172;2022-07-29T06:33:58;15.70;99.90
53264;DHT22;39153;52.680;6.172;2022-07-29T06:36:24;15.60;99.90
53264;DHT22;39153;52.680;6.172;2022-07-29T06:38:50;15.50;99.90
53264;DHT22;39153;52.680;6.172;2022-07-29T06:41:16;15.60;99.90
53264;DHT22;39153;52.680;6.172;2022-07-29T06:43:43;15.60;99.90
53264;DHT22;39153;52.680;6.172;2022-07-29T06:46:11;15.60;99.90
53264;DHT22;39153;52.680;6.172;2022-07-29T06:48:38;15.60;99.90
53264;DHT22;39153;52.680;6.172;2022-07-29T06:51:05;15.70;99.90
53264;DHT22;39153;52.680;6.172;2022-07-29T06:53:32;15.70;99.90
53264;DHT22;39153;52.680;6.172;2022-07-29T06:55:59;15.80;99.90
53264;DHT22;39153;52.680;6.172;2022-07-29T06:58:26;15.70;99.90
53264;DHT22;39153;52.680;6.172;2022-07-29T07:00:52;15.70;99.90
53264;DHT22;39153;52.680;6.172;2022-07-29T07:03:18;15.70;99.90
53264;DHT22;39153;52.680;6.172;2022-07-29T07:05:45;15.70;99.90
53264;DHT22;39153;52.680;6.172;2022-07-29T07:08:11;15.80;99.90
53264;DHT22;39153;52.680;6.172;2022-07-29T07:10:38;15.90;99.90
53264;DHT22;39153;52.680;6.172;2022-07-29T07:13:04;15.90;99.90
53264;DHT22;39153;52.680;6.172;2022-07-29T07:15:30;15.90;99.90
53264;DHT22;39153;52.680;6.172;2022-07-29T07:17:56;16.00;99.90
53264;DHT22;39153;52.680;6.172;2022-07-29T07:20:23;16.00;99.90
53264;DHT22;39153;52.680;6.172;2022-07-29T07:22:48;15.90;99.90
53264;DHT22;39153;52.680;6.172;2022-07-29T07:25:14;16.00;99.90
53264;DHT22;39153;52.680;6.172;2022-07-29T07:27:40;16.10;99.90
53264;DHT22;39153;52.680;6.172;2022-07-29T07:30:06;16.00;99.90
53264;DHT22;39153;52.680;6.172;2022-07-29T07:32:33;16.00;99.90
53264;DHT22;39153;52.680;6.172;2022-07-29T07:34:59;15.90;99.90
53264;DHT22;39153;52.680;6.172;2022-07-29T07:37:24;15.90;99.90
53264;DHT22;39153;52.680;6.172;2022-07-29T07:39:51;15.90;99.90
53264;DHT22;39153;52.680;6.172;2022-07-29T07:42:18;16.10;99.90
53264;DHT22;39153;52.680;6.172;2022-07-29T07:44:44;16.10;99.90
53264;DHT22;39153;52.680;6.172;2022-07-29T07:47:11;16.00;99.90
53264;DHT22;39153;52.680;6.172;2022-07-29T07:49:37;16.00;99.90
53264;DHT22;39153;52.680;6.172;2022-07-29T07:52:04;16.10;99.90
53264;DHT22;39153;52.680;6.172;2022-07-29T07:54:29;16.10;99.90
53264;DHT22;39153;52.680;6.172;2022-07-29T07:56:56;16.20;99.90
53264;DHT22;39153;52.680;6.172;2022-07-29T07:59:22;16.30;99.90
53264;DHT22;39153;52.680;6.172;2022-07-29T08:01:48;16.40;99.90
53264;DHT22;39153;52.680;6.172;2022-07-29T08:04:14;16.60;99.90
53264;DHT22;39153;52.680;6.172;2022-07-29T08:06:39;16.60;99.90
53264;DHT22;39153;52.680;6.172;2022-07-29T08:09:05;16.60;99.90
53264;DHT22;39153;52.680;6.172;2022-07-29T08:11:32;16.60;99.90
53264;DHT22;39153;52.680;6.172;2022-07-29T08:13:58;16.70;99.90
53264;DHT22;39153;52.680;6.172;2022-07-29T08:16:23;16.80;99.90
53264;DHT22;39153;52.680;6.172;2022-07-29T08:18:51;16.80;99.90
53264;DHT22;39153;52.680;6.172;2022-07-29T08:21:17;16.80;99.90
53264;DHT22;39153;52.680;6.172;2022-07-29T08:23:46;17.00;99.90
53264;DHT22;39153;52.680;6.172;2022-07-29T08:26:16;16.90;99.90
53264;DHT22;39153;52.680;6.172;2022-07-29T08:28:43;16.90;99.90
53264;DHT22;39153;52.680;6.172;2022-07-29T08:31:15;16.80;99.90
53264;DHT22;39153;52.680;6.172;2022-07-29T08:33:42;17.00;99.90
53264;DHT22;39153;52.680;6.172;2022-07-29T08:36:08;17.00;99.90
53264;DHT22;39153;52.680;6.172;2022-07-29T08:38:34;17.00;99.90
53264;DHT22;39153;52.680;6.172;2022-07-29T08:41:03;17.00;99.90
53264;DHT22;39153;52.680;6.172;2022-07-29T08:43:29;17.00;99.90
53264;DHT22;39153;52.680;6.172;2022-07-29T08:45:54;17.00;99.90
53264;DHT22;39153;52.680;6.172;2022-07-29T08:48:22;16.90;99.90
53264;DHT22;39153;52.680;6.172;2022-07-29T08:50:55;17.10;99.90
53264;DHT22;39153;52.680;6.172;2022-07-29T08:53:24;17.20;99.90
53264;DHT22;39153;52.680;6.172;2022-07-29T08:55:51;17.30;99.90
53264;DHT22;39153;52.680;6.172;2022-07-29T08:58:19;17.40;99.90
53264;DHT22;39153;52.680;6.172;2022-07-29T09:00:48;17.50;99.90
53264;DHT22;39153;52.680;6.172;2022-07-29T09:03:16;17.60;99.90
53264;DHT22;39153;52.680;6.172;2022-07-29T09:05:45;17.60;99.90
53264;DHT22;39153;52.680;6.172;2022-07-29T09:08:15;17.80;99.90
53264;DHT22;39153;52.680;6.172;2022-07-29T09:10:42;17.70;99.90
53264;DHT22;39153;52.680;6.172;2022-07-29T09:13:08;17.90;99.90
53264;DHT22;39153;52.680;6.172;2022-07-29T09:15:34;18.10;99.90
53264;DHT22;39153;52.680;6.172;2022-07-29T09:18:00;18.20;99.90
53264;DHT22;39153;52.680;6.172;2022-07-29T09:20:26;18.30;99.90
53264;DHT22;39153;52.680;6.172;2022-07-29T09:23:12;18.40;99.90
53264;DHT22;39153;52.680;6.172;2022-07-29T09:25:40;18.20;99.90
53264;DHT22;39153;52.680;6.172;2022-07-29T09:28:14;18.40;99.90
53264;DHT22;39153;52.680;6.172;2022-07-29T09:30:53;18.50;99.90
53264;DHT22;39153;52.680;6.172;2022-07-29T09:33:21;18.80;99.90
53264;DHT22;39153;52.680;6.172;2022-07-29T09:35:59;19.10;99.90
53264;DHT22;39153;52.680;6.172;2022-07-29T09:38:25;19.30;99.90
53264;DHT22;39153;52.680;6.172;2022-07-29T09:40:59;19.40;99.90
53264;DHT22;39153;52.680;6.172;2022-07-29T09:43:25;19.50;99.90
53264;DHT22;39153;52.680;6.172;2022-07-29T09:45:51;19.40;99.90
53264;DHT22;39153;52.680;6.172;2022-07-29T09:48:20;19.30;99.90
53264;DHT22;39153;52.680;6.172;2022-07-29T09:50:47;19.40;99.90
53264;DHT22;39153;52.680;6.172;2022-07-29T09:53:35;19.40;99.90
53264;DHT22;39153;52.680;6.172;2022-07-29T09:56:02;19.40;99.90
53264;DHT22;39153;52.680;6.172;2022-07-29T09:58:28;19.60;99.90
53264;DHT22;39153;52.680;6.172;2022-07-29T10:00:55;19.50;99.90
53264;DHT22;39153;52.680;6.172;2022-07-29T10:03:21;19.60;99.90
53264;DHT22;39153;52.680;6.172;2022-07-29T10:06:04;19.80;99.90
53264;DHT22;39153;52.680;6.172;2022-07-29T10:08:31;19.80;99.90
53264;DHT22;39153;52.680;6.172;2022-07-29T10:11:17;19.70;99.90
53264;DHT22;39153;52.680;6.172;2022-07-29T10:13:45;19.70;99.90
53264;DHT22;39153;52.680;6.172;2022-07-29T10:16:11;19.70;99.90
53264;DHT22;39153;52.680;6.172;2022-07-29T10:18:38;19.80;99.90
53264;DHT22;39153;52.680;6.172;2022-07-29T10:21:04;19.90;99.90
53264;DHT22;39153;52.680;6.172;2022-07-29T10:23:30;20.00;99.90
53264;DHT22;39153;52.680;6.172;2022-07-29T10:25:56;20.10;99.90
53264;DHT22;39153;52.680;6.172;2022-07-29T10:28:23;20.30;99.90
53264;DHT22;39153;52.680;6.172;2022-07-29T10:30:50;20.40;99.90
53264;DHT22;39153;52.680;6.172;2022-07-29T10:44:00;20.70;99.90
53264;DHT22;39153;52.680;6.172;2022-07-29T10:46:27;20.80;99.90
53264;DHT22;39153;52.680;6.172;2022-07-29T11:00:30;21.00;99.90
53264;DHT22;39153;52.680;6.172;2022-07-29T11:05:19;21.30;99.90
53264;DHT22;39153;52.680;6.172;2022-07-29T11:10:35;21.30;99.90
53264;DHT22;39153;52.680;6.172;2022-07-29T11:13:01;21.20;99.90
53264;DHT22;39153;52.680;6.172;2022-07-29T11:15:26;21.20;99.90
53264;DHT22;39153;52.680;6.172;2022-07-29T11:20:44;21.70;99.90
53264;DHT22;39153;52.680;6.172;2022-07-29T11:23:34;22.30;99.60
53264;DHT22;39153;52.680;6.172;2022-07-29T11:26:17;22.50;99.90
53264;DHT22;39153;52.680;6.172;2022-07-29T11:28:49;22.70;99.20
53264;DHT22;39153;52.680;6.172;2022-07-29T11:31:34;23.10;99.50
53264;DHT22;39153;52.680;6.172;2022-07-29T11:34:20;23.30;98.50
53264;DHT22;39153;52.680;6.172;2022-07-29T11:39:30;23.80;98.30
53264;DHT22;39153;52.680;6.172;2022-07-29T11:44:55;24.00;97.10
53264;DHT22;39153;52.680;6.172;2022-07-29T11:47:25;24.20;97.10
53264;DHT22;39153;52.680;6.172;2022-07-29T11:49:51;24.30;97.30
53264;DHT22;39153;52.680;6.172;2022-07-29T11:52:18;24.40;97.50
53264;DHT22;39153;52.680;6.172;2022-07-29T11:54:44;24.30;95.90
53264;DHT22;39153;52.680;6.172;2022-07-29T11:57:12;24.40;97.20
53264;DHT22;39153;52.680;6.172;2022-07-29T11:59:40;24.70;96.00
53264;DHT22;39153;52.680;6.172;2022-07-29T12:02:10;24.40;94.60
53264;DHT22;39153;52.680;6.172;2022-07-29T12:04:52;24.50;94.00
53264;DHT22;39153;52.680;6.172;2022-07-29T12:07:35;24.50;94.20
53264;DHT22;39153;52.680;6.172;2022-07-29T12:10:03;25.00;94.10
53264;DHT22;39153;52.680;6.172;2022-07-29T12:12:29;25.20;94.40
53264;DHT22;39153;52.680;6.172;2022-07-29T12:14:55;25.20;94.50
53264;DHT22;39153;52.680;6.172;2022-07-29T12:17:28;25.40;95.20
53264;DHT22;39153;52.680;6.172;2022-07-29T12:19:55;25.50;92.90
53264;DHT22;39153;52.680;6.172;2022-07-29T12:22:31;25.80;94.50
53264;DHT22;39153;52.680;6.172;2022-07-29T12:25:06;25.90;92.20
53264;DHT22;39153;52.680;6.172;2022-07-29T12:27:33;25.90;93.20
53264;DHT22;39153;52.680;6.172;2022-07-29T12:30:05;25.50;92.90
53264;DHT22;39153;52.680;6.172;2022-07-29T12:35:09;25.70;92.80
53264;DHT22;39153;52.680;6.172;2022-07-29T12:37:37;26.00;93.20
53264;DHT22;39153;52.680;6.172;2022-07-29T12:40:05;25.80;93.20
53264;DHT22;39153;52.680;6.172;2022-07-29T12:42:31;25.60;92.40
53264;DHT22;39153;52.680;6.172;2022-07-29T12:44:58;25.50;92.80
53264;DHT22;39153;52.680;6.172;2022-07-29T12:47:24;25.40;92.70
53264;DHT22;39153;52.680;6.172;2022-07-29T12:49:50;25.10;93.00
53264;DHT22;39153;52.680;6.172;2022-07-29T12:52:34;24.90;93.10
53264;DHT22;39153;52.680;6.172;2022-07-29T12:55:00;25.00;93.60
53264;DHT22;39153;52.680;6.172;2022-07-29T12:57:26;25.20;93.50
53264;DHT22;39153;52.680;6.172;2022-07-29T13:00:09;25.80;93.70
53264;DHT22;39153;52.680;6.172;2022-07-29T13:02:39;25.70;93.10
53264;DHT22;39153;52.680;6.172;2022-07-29T13:05:06;25.60;93.50
53264;DHT22;39153;52.680;6.172;2022-07-29T13:07:35;25.70;93.10
53264;DHT22;39153;52.680;6.172;2022-07-29T13:10:13;25.60;93.40
53264;DHT22;39153;52.680;6.172;2022-07-29T13:15:28;25.60;93.90
53264;DHT22;39153;52.680;6.172;2022-07-29T13:17:54;25.90;93.70
53264;DHT22;39153;52.680;6.172;2022-07-29T13:20:24;25.90;93.60
53264;DHT22;39153;52.680;6.172;2022-07-29T13:22:50;26.00;94.00
53264;DHT22;39153;52.680;6.172;2022-07-29T13:25:27;26.40;93.10
53264;DHT22;39153;52.680;6.172;2022-07-29T13:27:54;26.90;92.40
53264;DHT22;39153;52.680;6.172;2022-07-29T13:30:20;27.00;91.80
53264;DHT22;39153;52.680;6.172;2022-07-29T13:32:46;27.20;90.30
53264;DHT22;39153;52.680;6.172;2022-07-29T13:35:12;27.40;91.50
53264;DHT22;39153;52.680;6.172;2022-07-29T13:37:39;27.60;91.10
53264;DHT22;39153;52.680;6.172;2022-07-29T13:40:07;27.70;91.40
53264;DHT22;39153;52.680;6.172;2022-07-29T13:42:33;27.80;91.00
53264;DHT22;39153;52.680;6.172;2022-07-29T13:44:59;28.10;90.50
53264;DHT22;39153;52.680;6.172;2022-07-29T13:47:25;28.00;90.10
53264;DHT22;39153;52.680;6.172;2022-07-29T13:49:51;28.10;89.70
53264;DHT22;39153;52.680;6.172;2022-07-29T13:52:17;28.20;90.20
53264;DHT22;39153;52.680;6.172;2022-07-29T13:54:43;28.30;87.70
53264;DHT22;39153;52.680;6.172;2022-07-29T13:57:09;28.40;87.60
53264;DHT22;39153;52.680;6.172;2022-07-29T13:59:36;28.50;85.60
53264;DHT22;39153;52.680;6.172;2022-07-29T14:02:02;28.50;86.10
53264;DHT22;39153;52.680;6.172;2022-07-29T14:04:28;28.40;84.70
53264;DHT22;39153;52.680;6.172;2022-07-29T14:06:53;28.70;86.40
53264;DHT22;39153;52.680;6.172;2022-07-29T14:09:20;29.10;88.50
53264;DHT22;39153;52.680;6.172;2022-07-29T14:11:45;28.70;86.80
53264;DHT22;39153;52.680;6.172;2022-07-29T14:14:13;28.80;86.30
53264;DHT22;39153;52.680;6.172;2022-07-29T14:16:38;28.80;86.30
53264;DHT22;39153;52.680;6.172;2022-07-29T14:19:04;29.00;86.60
53264;DHT22;39153;52.680;6.172;2022-07-29T14:21:30;29.40;87.30
53264;DHT22;39153;52.680;6.172;2022-07-29T14:23:56;29.50;86.30
53264;DHT22;39153;52.680;6.172;2022-07-29T14:26:22;29.60;85.70
53264;DHT22;39153;52.680;6.172;2022-07-29T14:28:48;29.70;85.70
53264;DHT22;39153;52.680;6.172;2022-07-29T14:31:14;29.90;84.50
53264;DHT22;39153;52.680;6.172;2022-07-29T14:33:40;29.70;84.40
53264;DHT22;39153;52.680;6.172;2022-07-29T14:36:05;29.40;84.60
53264;DHT22;39153;52.680;6.172;2022-07-29T14:38:31;29.80;85.70
53264;DHT22;39153;52.680;6.172;2022-07-29T14:40:57;29.90;84.60
53264;DHT22;39153;52.680;6.172;2022-07-29T14:43:23;29.90;84.80
53264;DHT22;39153;52.680;6.172;2022-07-29T14:45:48;29.80;82.50
53264;DHT22;39153;52.680;6.172;2022-07-29T14:48:14;29.70;82.30
53264;DHT22;39153;52.680;6.172;2022-07-29T14:50:40;30.00;83.00
53264;DHT22;39153;52.680;6.172;2022-07-29T14:53:05;29.50;81.20
53264;DHT22;39153;52.680;6.172;2022-07-29T14:55:31;30.10;80.20
53264;DHT22;39153;52.680;6.172;2022-07-29T14:57:57;30.40;80.00
53264;DHT22;39153;52.680;6.172;2022-07-29T15:00:24;30.80;79.90
53264;DHT22;39153;52.680;6.172;2022-07-29T15:02:50;30.50;80.00
53264;DHT22;39153;52.680;6.172;2022-07-29T15:05:16;30.70;81.10
53264;DHT22;39153;52.680;6.172;2022-07-29T15:07:41;31.10;79.50
53264;DHT22;39153;52.680;6.172;2022-07-29T15:10:07;31.20;78.50
53264;DHT22;39153;52.680;6.172;2022-07-29T15:12:33;31.10;77.90
53264;DHT22;39153;52.680;6.172;2022-07-29T15:14:59;30.70;78.20
53264;DHT22;39153;52.680;6.172;2022-07-29T15:17:25;31.30;77.80
53264;DHT22;39153;52.680;6.172;2022-07-29T15:19:50;31.50;76.70
53264;DHT22;39153;52.680;6.172;2022-07-29T15:22:16;31.50;76.40
53264;DHT22;39153;52.680;6.172;2022-07-29T15:24:42;31.40;74.70
53264;DHT22;39153;52.680;6.172;2022-07-29T15:27:08;31.50;74.70
53264;DHT22;39153;52.680;6.172;2022-07-29T15:29:40;31.40;75.50
53264;DHT22;39153;52.680;6.172;2022-07-29T15:32:06;31.60;75.40
53264;DHT22;39153;52.680;6.172;2022-07-29T15:34:32;31.60;73.80
53264;DHT22;39153;52.680;6.172;2022-07-29T15:36:57;31.70;73.60
53264;DHT22;39153;52.680;6.172;2022-07-29T15:39:23;31.50;74.60
53264;DHT22;39153;52.680;6.172;2022-07-29T15:41:49;32.00;74.30
53264;DHT22;39153;52.680;6.172;2022-07-29T15:44:15;31.80;72.50
53264;DHT22;39153;52.680;6.172;2022-07-29T15:46:40;31.80;73.60
53264;DHT22;39153;52.680;6.172;2022-07-29T15:49:25;31.80;73.00
53264;DHT22;39153;52.680;6.172;2022-07-29T15:52:00;31.80;72.10
53264;DHT22;39153;52.680;6.172;2022-07-29T15:54:27;32.00;72.00
53264;DHT22;39153;52.680;6.172;2022-07-29T15:56:53;32.20;71.50
53264;DHT22;39153;52.680;6.172;2022-07-29T15:59:19;32.00;72.20
53264;DHT22;39153;52.680;6.172;2022-07-29T16:01:45;31.80;71.80
53264;DHT22;39153;52.680;6.172;2022-07-29T16:04:11;31.80;71.50
53264;DHT22;39153;52.680;6.172;2022-07-29T16:06:37;31.90;70.10
53264;DHT22;39153;52.680;6.172;2022-07-29T16:09:03;31.70;70.60
53264;DHT22;39153;52.680;6.172;2022-07-29T16:11:29;31.70;71.30
53264;DHT22;39153;52.680;6.172;2022-07-29T16:13:54;31.90;71.10
53264;DHT22;39153;52.680;6.172;2022-07-29T16:16:20;31.90;70.30
53264;DHT22;39153;52.680;6.172;2022-07-29T16:18:46;32.20;70.60
53264;DHT22;39153;52.680;6.172;2022-07-29T16:21:12;32.20;70.00
53264;DHT22;39153;52.680;6.172;2022-07-29T16:23:38;32.00;70.80
53264;DHT22;39153;52.680;6.172;2022-07-29T16:26:04;31.90;70.40
53264;DHT22;39153;52.680;6.172;2022-07-29T16:28:30;32.00;70.40